createdAt,value
2023-04-16T00:01:06.341Z,100510.73
2023-04-16T00:03:35.540Z,100513.24
2023-04-16T00:06:04.872Z,100516.52
2023-04-16T00:08:34.972Z,100516.65
2023-04-16T00:11:03.324Z,100519.27
2023-04-16T00:13:31.816Z,100512.54
2023-04-16T00:16:00.229Z,100514.71
2023-04-16T00:18:28.541Z,100513.59
2023-04-16T00:20:57.197Z,100517.02
2023-04-16T00:23:25.862Z,100511.77
2023-04-16T00:25:59.255Z,100506.05
2023-04-16T00:28:28.239Z,100509.72
2023-04-16T00:30:56.766Z,100511.77
2023-04-16T00:33:25.265Z,100515.31
2023-04-16T00:35:54.323Z,100519.92
2023-04-16T00:38:22.561Z,100520.84
2023-04-16T00:40:51.018Z,100517.04
2023-04-16T00:43:24.268Z,100518.95
2023-04-16T00:45:56.664Z,100515.70
2023-04-16T00:48:27.268Z,100511.31
2023-04-16T00:50:55.843Z,100508.52
2023-04-16T00:53:24.152Z,100506.98
2023-04-16T00:55:52.621Z,100510.27
2023-04-16T00:58:21.280Z,100514.48
2023-04-16T01:00:50.296Z,100517.02
2023-04-16T01:03:19.307Z,100514.34
2023-04-16T01:05:50.091Z,100515.86
2023-04-16T01:08:19.834Z,100519.32
2023-04-16T01:10:48.449Z,100515.95
2023-04-16T01:13:16.759Z,100519.65
2023-04-16T01:15:45.143Z,100519.39
2023-04-16T01:18:17.151Z,100516.44
2023-04-16T01:20:45.797Z,100511.27
2023-04-16T01:23:14.247Z,100510.95
2023-04-16T01:25:42.494Z,100510.29
2023-04-16T01:28:10.977Z,100514.75
2023-04-16T01:30:39.358Z,100518.45
2023-04-16T01:33:08.330Z,100519.45
2023-04-16T01:35:37.144Z,100516.86
2023-04-16T01:38:07.143Z,100519.88
2023-04-16T01:40:35.943Z,100523.69
2023-04-16T01:43:04.571Z,100521.19
2023-04-16T01:45:33.301Z,100522.92
2023-04-16T01:48:01.844Z,100523.81
2023-04-16T01:50:30.955Z,100524.17
2023-04-16T01:53:01.317Z,100524.58
2023-04-16T01:55:29.733Z,100527.63
2023-04-16T01:57:58.327Z,100526.82
2023-04-16T02:00:26.707Z,100527.25
2023-04-16T02:02:55.915Z,100529.98
2023-04-16T02:05:24.449Z,100535.11
2023-04-16T02:07:52.815Z,100538.34
2023-04-16T02:10:21.534Z,100541.17
2023-04-16T02:12:52.692Z,100544.08
2023-04-16T02:15:21.019Z,100546.23
2023-04-16T02:17:54.363Z,100546.11
2023-04-16T02:20:23.394Z,100549.50
2023-04-16T02:22:51.773Z,100551.20
2023-04-16T02:25:20.054Z,100553.92
2023-04-16T02:27:48.923Z,100555.86
2023-04-16T02:30:17.792Z,100554.24
2023-04-16T02:32:46.266Z,100555.29
2023-04-16T02:35:15.183Z,100557.70
2023-04-16T02:37:43.491Z,100553.66
2023-04-16T02:40:12.867Z,100560.94
2023-04-16T02:42:41.399Z,100559.73
2023-04-16T02:45:12.052Z,100564.23
2023-04-16T02:47:40.491Z,100571.65
2023-04-16T02:50:10.442Z,100567.60
2023-04-16T02:52:38.826Z,100570.98
2023-04-16T02:55:09.179Z,100571.65
2023-04-16T02:57:37.854Z,100578.02
2023-04-16T03:00:09.225Z,100580.58
2023-04-16T03:02:37.886Z,100578.05
2023-04-16T03:05:07.707Z,100584.14
2023-04-16T03:07:38.558Z,100584.31
2023-04-16T03:10:09.352Z,100587.33
2023-04-16T03:12:38.667Z,100589.44
2023-04-16T03:15:08.960Z,100592.14
2023-04-16T03:17:37.310Z,100588.81
2023-04-16T03:20:09.615Z,100588.46
2023-04-16T03:22:40.534Z,100588.35
2023-04-16T03:25:09.732Z,100590.55
2023-04-16T03:27:39.097Z,100590.79
2023-04-16T03:30:10.378Z,100594.57
2023-04-16T03:32:39.116Z,100594.11
2023-04-16T03:35:09.091Z,100594.04
2023-04-16T03:37:37.376Z,100587.31
2023-04-16T03:40:07.780Z,100590.02
2023-04-16T03:42:36.263Z,100588.95
2023-04-16T03:45:05.774Z,100591.79
2023-04-16T03:47:34.130Z,100591.35
2023-04-16T03:50:02.599Z,100590.01
2023-04-16T03:52:30.945Z,100591.61
2023-04-16T03:55:01.091Z,100594.55
2023-04-16T03:57:29.329Z,100596.52
2023-04-16T03:59:57.700Z,100600.80
2023-04-16T04:02:26.585Z,100602.05
2023-04-16T04:04:55.600Z,100600.99
2023-04-16T04:07:24.009Z,100599.75
2023-04-16T04:09:52.679Z,100601.30
2023-04-16T04:12:23.789Z,100602.21
2023-04-16T04:14:52.326Z,100603.95
2023-04-16T04:17:20.668Z,100605.42
2023-04-16T04:20:00.512Z,100605.92
2023-04-16T04:22:30.193Z,100607.39
2023-04-16T04:24:58.558Z,100608.36
2023-04-16T04:27:26.933Z,100608.58
2023-04-16T04:29:56.232Z,100612.01
2023-04-16T04:32:24.797Z,100614.28
2023-04-16T04:34:53.167Z,100618.48
2023-04-16T04:37:21.932Z,100624.61
2023-04-16T04:39:52.328Z,100623.27
2023-04-16T04:42:21.379Z,100625.07
2023-04-16T04:44:49.795Z,100633.25
2023-04-16T04:47:18.143Z,100634.88
2023-04-16T04:49:46.443Z,100637.27
2023-04-16T04:52:15.299Z,100638.77
2023-04-16T04:54:43.891Z,100640.90
2023-04-16T04:57:12.152Z,100643.86
2023-04-16T04:59:40.554Z,100646.03
2023-04-16T05:02:08.998Z,100647.98
2023-04-16T05:04:37.414Z,100651.45
2023-04-16T05:07:06.042Z,100654.72
2023-04-16T05:09:34.365Z,100655.89
2023-04-16T05:12:02.938Z,100657.88
2023-04-16T05:14:31.566Z,100658.17
2023-04-16T05:17:00.539Z,100660.52
2023-04-16T05:19:28.861Z,100656.73
2023-04-16T05:21:57.196Z,100656.19
2023-04-16T05:24:25.550Z,100659.23
2023-04-16T05:26:53.863Z,100658.92
2023-04-16T05:29:22.228Z,100659.57
2023-04-16T05:31:50.522Z,100660.80
2023-04-16T05:34:18.857Z,100662.98
2023-04-16T05:36:47.071Z,100668.08
2023-04-16T05:39:17.989Z,100669.18
2023-04-16T05:41:46.287Z,100668.48
2023-04-16T05:44:15.359Z,100668.77
2023-04-16T05:46:43.595Z,100672.09
2023-04-16T05:49:12.138Z,100670.39
2023-04-16T05:51:40.601Z,100674.16
2023-04-16T05:54:08.941Z,100681.23
2023-04-16T05:56:37.390Z,100684.27
2023-04-16T05:59:05.797Z,100689.41
2023-04-16T06:01:34.481Z,100689.99
2023-04-16T06:04:03.182Z,100687.34
2023-04-16T06:06:31.649Z,100691.45
2023-04-16T06:09:00.339Z,100689.23
2023-04-16T06:11:30.009Z,100695.42
2023-04-16T06:13:58.278Z,100696.61
2023-04-16T06:16:26.626Z,100698.37
2023-04-16T06:18:55.485Z,100702.95
2023-04-16T06:21:23.894Z,100700.79
2023-04-16T06:23:52.277Z,100700.33
2023-04-16T06:26:20.599Z,100701.45
2023-04-16T06:28:49.623Z,100704.36
2023-04-16T06:31:17.975Z,100705.55
2023-04-16T06:33:46.213Z,100707.15
2023-04-16T06:36:14.446Z,100705.66
2023-04-16T06:38:43.074Z,100706.30
2023-04-16T06:41:11.413Z,100705.30
2023-04-16T06:43:39.759Z,100702.96
2023-04-16T06:46:08.306Z,100707.30
2023-04-16T06:48:36.584Z,100705.10
2023-04-16T06:51:05.058Z,100710.37
2023-04-16T06:53:33.371Z,100709.91
2023-04-16T06:56:01.650Z,100708.52
2023-04-16T06:58:29.993Z,100713.14
2023-04-16T07:00:58.438Z,100714.73
2023-04-16T07:03:26.996Z,100716.57
2023-04-16T07:05:56.162Z,100717.48
2023-04-16T07:08:24.571Z,100720.84
2023-04-16T07:10:53.214Z,100717.41
2023-04-16T07:13:21.642Z,100723.25
2023-04-16T07:15:49.975Z,100723.29
2023-04-16T07:18:20.276Z,100726.56
2023-04-16T07:20:49.083Z,100731.06
2023-04-16T07:23:17.501Z,100730.66
2023-04-16T07:25:46.058Z,100734.61
2023-04-16T07:28:16.074Z,100735.69
2023-04-16T07:30:44.343Z,100744.22
2023-04-16T07:33:12.633Z,100744.64
2023-04-16T07:35:40.983Z,100752.69
2023-04-16T07:38:09.681Z,100755.64
2023-04-16T07:40:38.145Z,100753.70
2023-04-16T07:43:06.530Z,100755.66
2023-04-16T07:45:35.161Z,100758.19
2023-04-16T07:48:04.583Z,100757.36
2023-04-16T07:50:32.848Z,100759.42
2023-04-16T07:53:01.736Z,100762.64
2023-04-16T07:55:30.094Z,100765.39
2023-04-16T07:57:58.424Z,100768.95
2023-04-16T08:00:26.895Z,100766.67
2023-04-16T08:02:55.397Z,100769.30
2023-04-16T08:05:24.036Z,100770.80
2023-04-16T08:07:52.409Z,100775.87
2023-04-16T08:10:20.693Z,100774.38
2023-04-16T08:12:49.235Z,100779.55
2023-04-16T08:15:17.624Z,100785.25
2023-04-16T08:17:46.046Z,100786.90
2023-04-16T08:20:17.619Z,100788.22
2023-04-16T08:22:49.212Z,100789.30
2023-04-16T08:25:17.756Z,100788.71
2023-04-16T08:27:45.999Z,100787.17
2023-04-16T08:30:15.813Z,100790.62
2023-04-16T08:32:44.382Z,100789.79
2023-04-16T08:35:12.762Z,100790.55
2023-04-16T08:37:41.373Z,100789.44
2023-04-16T08:40:11.366Z,100786.73
2023-04-16T08:42:44.036Z,100786.59
2023-04-16T08:45:16.799Z,100787.51
2023-04-16T08:47:46.956Z,100787.13
2023-04-16T08:50:16.817Z,100792.12
2023-04-16T08:52:49.738Z,100796.71
2023-04-16T08:55:19.796Z,100793.98
2023-04-16T08:57:50.798Z,100795.23
2023-04-16T09:00:20.366Z,100800.42
2023-04-16T09:02:49.701Z,100799.36
2023-04-16T09:05:20.801Z,100805.70
2023-04-16T09:07:49.272Z,100808.11
2023-04-16T09:10:17.973Z,100810.77
2023-04-16T09:12:46.918Z,100807.25
2023-04-16T09:15:17.578Z,100807.94
2023-04-16T09:17:46.024Z,100806.77
2023-04-16T09:20:15.898Z,100808.06
2023-04-16T09:22:44.330Z,100812.77
2023-04-16T09:25:12.925Z,100815.18
2023-04-16T09:27:41.691Z,100816.94
2023-04-16T09:30:26.645Z,100820.30
2023-04-16T09:33:13.343Z,100824.42
2023-04-16T09:35:47.161Z,100822.65
2023-04-16T09:38:16.330Z,100828.40
2023-04-16T09:40:44.669Z,100830.23
2023-04-16T09:43:13.978Z,100830.70
2023-04-16T09:45:52.462Z,100836.41
2023-04-16T09:48:30.253Z,100833.80
2023-04-16T09:50:59.408Z,100837.70
2023-04-16T09:53:28.892Z,100839.14
2023-04-16T09:55:57.873Z,100841.21
2023-04-16T09:58:26.834Z,100843.52
2023-04-16T10:00:57.210Z,100844.73
2023-04-16T10:03:31.347Z,100846.77
2023-04-16T10:06:02.266Z,100847.22
2023-04-16T10:08:30.588Z,100849.58
2023-04-16T10:10:59.315Z,100851.96
2023-04-16T10:13:27.651Z,100855.40
2023-04-16T10:15:57.362Z,100851.88
2023-04-16T10:18:26.819Z,100857.05
2023-04-16T10:20:55.742Z,100859.08
2023-04-16T10:23:23.978Z,100858.38
2023-04-16T10:25:55.175Z,100861.63
2023-04-16T10:28:25.437Z,100864.61
2023-04-16T10:30:54.332Z,100862.80
2023-04-16T10:33:23.923Z,100867.84
2023-04-16T10:36:07.326Z,100870.65
2023-04-16T10:38:38.839Z,100867.86
2023-04-16T10:41:08.417Z,100870.58
2023-04-16T10:43:41.423Z,100874.31
2023-04-16T10:46:23.522Z,100874.27
2023-04-16T10:48:54.498Z,100875.63
2023-04-16T10:51:28.828Z,100878.05
2023-04-16T10:53:58.543Z,100878.36
2023-04-16T10:56:27.596Z,100879.70
2023-04-16T10:58:56.062Z,100876.58
2023-04-16T11:01:32.574Z,100875.73
2023-04-16T11:04:02.306Z,100879.41
2023-04-16T11:06:31.571Z,100878.47
2023-04-16T11:08:59.929Z,100881.24
2023-04-16T11:11:29.604Z,100879.09
2023-04-16T11:13:57.968Z,100879.93
2023-04-16T11:16:27.075Z,100885.67
2023-04-16T11:19:07.951Z,100888.38
2023-04-16T11:21:36.727Z,100888.86
2023-04-16T11:24:05.551Z,100890.23
2023-04-16T11:26:34.480Z,100887.38
2023-04-16T11:29:04.352Z,100889.89
2023-04-16T11:31:32.898Z,100889.21
2023-04-16T11:34:03.129Z,100890.09
2023-04-16T11:36:44.188Z,100886.14
2023-04-16T11:39:13.113Z,100886.58
2023-04-16T11:41:44.412Z,100880.85
2023-04-16T11:44:20.119Z,100881.15
2023-04-16T11:46:49.485Z,100882.31
2023-04-16T11:49:18.551Z,100883.41
2023-04-16T11:51:47.925Z,100874.17
2023-04-16T11:54:24.932Z,100872.54
2023-04-16T11:56:54.085Z,100872.48
2023-04-16T11:59:24.025Z,100869.48
2023-04-16T12:01:54.960Z,100868.27
2023-04-16T12:04:24.943Z,100864.80
2023-04-16T12:07:07.067Z,100868.52
2023-04-16T12:09:38.676Z,100869.19
2023-04-16T12:12:26.136Z,100867.75
2023-04-16T12:14:56.161Z,100866.20
2023-04-16T12:17:24.900Z,100860.07
2023-04-16T12:19:56.794Z,100857.24
2023-04-16T12:22:29.835Z,100851.73
2023-04-16T12:25:00.615Z,100846.50
2023-04-16T12:27:46.238Z,100845.94
2023-04-16T12:30:15.834Z,100846.46
2023-04-16T12:32:46.669Z,100852.41
2023-04-16T12:35:30.448Z,100852.73
2023-04-16T12:37:58.869Z,100851.57
2023-04-16T12:40:27.260Z,100847.84
2023-04-16T12:42:55.700Z,100848.10
2023-04-16T12:45:24.679Z,100846.29
2023-04-16T12:47:53.044Z,100847.02
2023-04-16T12:50:21.469Z,100842.14
2023-04-16T12:52:49.838Z,100842.70
2023-04-16T12:55:18.566Z,100840.86
2023-04-16T12:57:48.270Z,100843.51
2023-04-16T13:00:17.760Z,100841.54
2023-04-16T13:02:46.447Z,100841.20
2023-04-16T13:05:17.954Z,100842.84
2023-04-16T13:07:46.528Z,100835.33
2023-04-16T13:10:14.779Z,100835.13
2023-04-16T13:12:43.260Z,100835.86
2023-04-16T13:15:12.143Z,100836.89
2023-04-16T13:17:40.422Z,100834.33
2023-04-16T13:20:10.733Z,100833.13
2023-04-16T13:22:40.008Z,100832.09
2023-04-16T13:25:10.087Z,100834.92
2023-04-16T13:27:38.622Z,100833.14
2023-04-16T13:30:09.162Z,100834.44
2023-04-16T13:32:37.772Z,100832.43
2023-04-16T13:35:07.384Z,100835.13
2023-04-16T13:37:36.172Z,100835.77
2023-04-16T13:40:06.209Z,100835.98
2023-04-16T13:42:34.629Z,100838.22
2023-04-16T13:45:03.016Z,100839.98
2023-04-16T13:47:31.425Z,100835.94
2023-04-16T13:49:59.902Z,100840.93
2023-04-16T13:52:28.366Z,100841.66
2023-04-16T13:54:57.852Z,100843.38
2023-04-16T13:57:28.918Z,100843.47
2023-04-16T13:59:57.523Z,100843.11
2023-04-16T14:02:26.102Z,100842.12
2023-04-16T14:04:54.906Z,100839.83
2023-04-16T14:07:26.944Z,100838.58
2023-04-16T14:09:55.811Z,100836.23
2023-04-16T14:12:24.498Z,100842.41
2023-04-16T14:14:55.750Z,100839.38
2023-04-16T14:17:24.351Z,100840.18
2023-04-16T14:19:52.868Z,100841.52
2023-04-16T14:22:21.200Z,100842.58
2023-04-16T14:24:49.927Z,100846.48
2023-04-16T14:27:18.350Z,100849.53
2023-04-16T14:29:46.658Z,100847.27
2023-04-16T14:32:15.120Z,100845.70
2023-04-16T14:34:43.525Z,100846.23
2023-04-16T14:37:11.994Z,100842.17
2023-04-16T14:39:40.629Z,100840.12
2023-04-16T14:42:09.300Z,100846.73
2023-04-16T14:44:38.261Z,100850.66
2023-04-16T14:47:07.977Z,100853.00
2023-04-16T14:49:36.344Z,100846.69
2023-04-16T14:52:06.556Z,100845.63
2023-04-16T14:54:35.295Z,100844.36
2023-04-16T14:57:03.843Z,100849.76
2023-04-16T14:59:32.191Z,100849.98
2023-04-16T15:02:00.914Z,100848.23
2023-04-16T15:04:30.559Z,100847.89
2023-04-16T15:06:59.046Z,100854.04
2023-04-16T15:09:27.564Z,100853.74
2023-04-16T15:11:56.515Z,100854.58
2023-04-16T15:14:24.906Z,100862.75
2023-04-16T15:16:53.812Z,100857.42
2023-04-16T15:19:22.629Z,100853.98
2023-04-16T15:21:51.026Z,100856.17
2023-04-16T15:24:19.427Z,100854.33
2023-04-16T15:26:47.843Z,100858.20
2023-04-16T15:29:16.122Z,100857.41
2023-04-16T15:31:44.798Z,100860.61
2023-04-16T15:34:13.497Z,100860.59
2023-04-16T15:36:42.264Z,100861.13
2023-04-16T15:39:11.445Z,100868.27
2023-04-16T15:41:53.647Z,100873.52
2023-04-16T15:44:29.104Z,100873.40
2023-04-16T15:46:57.558Z,100870.10
2023-04-16T15:49:26.118Z,100867.50
2023-04-16T15:51:54.985Z,100868.95
2023-04-16T15:54:24.097Z,100872.74
2023-04-16T15:56:52.785Z,100876.44
2023-04-16T15:59:21.370Z,100870.04
2023-04-16T16:01:49.917Z,100874.17
2023-04-16T16:04:18.389Z,100870.91
2023-04-16T16:06:46.751Z,100875.80
2023-04-16T16:09:15.194Z,100880.16
2023-04-16T16:11:43.560Z,100883.80
2023-04-16T16:14:13.482Z,100886.38
2023-04-16T16:16:41.943Z,100887.64
2023-04-16T16:19:10.727Z,100888.15
2023-04-16T16:21:39.469Z,100893.44
2023-04-16T16:24:08.832Z,100900.15
2023-04-16T16:26:37.263Z,100901.99
2023-04-16T16:29:06.794Z,100905.44
2023-04-16T16:31:35.336Z,100907.62
2023-04-16T16:34:03.918Z,100908.00
2023-04-16T16:36:36.083Z,100913.56
2023-04-16T16:39:04.779Z,100916.95
2023-04-16T16:41:37.272Z,100919.48
2023-04-16T16:44:06.364Z,100921.45
2023-04-16T16:46:35.808Z,100919.84
2023-04-16T16:49:05.434Z,100925.98
2023-04-16T16:51:34.143Z,100925.86
2023-04-16T16:54:02.618Z,100932.83
2023-04-16T16:56:30.918Z,100934.42
2023-04-16T16:59:02.573Z,100936.98
2023-04-16T17:01:31.430Z,100937.06
2023-04-16T17:04:00.147Z,100939.98
2023-04-16T17:06:28.686Z,100943.11
2023-04-16T17:08:57.027Z,100949.31
2023-04-16T17:11:26.630Z,100952.95
2023-04-16T17:13:55.011Z,100958.83
2023-04-16T17:16:23.571Z,100959.31
2023-04-16T17:18:52.195Z,100959.38
2023-04-16T17:21:20.996Z,100962.63
2023-04-16T17:23:49.315Z,100963.63
2023-04-16T17:26:17.693Z,100971.04
2023-04-16T17:28:46.248Z,100975.23
2023-04-16T17:31:14.662Z,100977.48
2023-04-16T17:33:43.867Z,100984.36
2023-04-16T17:36:12.388Z,100987.93
2023-04-16T17:38:44.977Z,100988.08
2023-04-16T17:41:13.510Z,100986.72
2023-04-16T17:43:42.417Z,100991.45
2023-04-16T17:46:11.375Z,100995.52
2023-04-16T17:48:39.975Z,100994.88
2023-04-16T17:51:12.275Z,100994.25
2023-04-16T17:53:41.979Z,100999.11
2023-04-16T17:56:10.294Z,100996.90
2023-04-16T17:58:38.560Z,100998.99
2023-04-16T18:01:06.948Z,100999.41
2023-04-16T18:03:36.489Z,101001.00
2023-04-16T18:06:05.552Z,101002.44
2023-04-16T18:08:36.210Z,101004.73
2023-04-16T18:11:08.008Z,101006.95
2023-04-16T18:13:36.927Z,101004.66
2023-04-16T18:16:06.847Z,101006.51
2023-04-16T18:18:35.681Z,101007.36
2023-04-16T18:21:04.432Z,101013.23
2023-04-16T18:23:32.680Z,101016.80
2023-04-16T18:26:00.999Z,101018.70
2023-04-16T18:28:30.051Z,101021.23
2023-04-16T18:31:03.261Z,101023.00
2023-04-16T18:36:03.289Z,101026.67
2023-04-16T18:38:31.747Z,101028.02
2023-04-16T18:41:01.738Z,101027.16
2023-04-16T18:43:30.438Z,101026.23
2023-04-16T18:45:58.782Z,101021.86
2023-04-16T18:48:27.287Z,101025.85
2023-04-16T18:50:57.449Z,101025.25
2023-04-16T18:53:25.843Z,101027.19
2023-04-16T18:55:54.564Z,101030.87
2023-04-16T18:58:22.937Z,101031.86
2023-04-16T19:00:53.671Z,101030.04
2023-04-16T19:03:24.750Z,101032.22
2023-04-16T19:05:53.186Z,101031.71
2023-04-16T19:08:21.456Z,101031.95
2023-04-16T19:10:50.246Z,101031.66
2023-04-16T19:13:18.932Z,101035.01
2023-04-16T19:15:47.295Z,101033.88
2023-04-16T19:18:15.780Z,101040.65
2023-04-16T19:20:44.130Z,101041.45
2023-04-16T19:23:13.314Z,101043.19
2023-04-16T19:25:42.286Z,101046.98
2023-04-16T19:28:10.632Z,101048.40
2023-04-16T19:30:39.823Z,101044.27
2023-04-16T19:33:08.308Z,101046.11
2023-04-16T19:35:36.635Z,101045.05
2023-04-16T19:38:05.030Z,101044.41
2023-04-16T19:40:34.018Z,101042.87
2023-04-16T19:43:03.147Z,101045.34
2023-04-16T19:45:31.454Z,101042.61
2023-04-16T19:48:00.319Z,101046.50
2023-04-16T19:50:29.106Z,101045.16
2023-04-16T19:52:57.410Z,101044.48
2023-04-16T19:55:26.834Z,101045.86
2023-04-16T19:57:55.256Z,101043.70
2023-04-16T20:00:23.698Z,101040.34
2023-04-16T20:02:52.222Z,101043.84
2023-04-16T20:05:20.597Z,101042.26
2023-04-16T20:07:50.325Z,101041.36
2023-04-16T20:10:20.832Z,101042.69
2023-04-16T20:12:50.202Z,101045.63
2023-04-16T20:15:18.716Z,101046.48
2023-04-16T20:17:47.322Z,101046.10
2023-04-16T20:20:16.103Z,101046.55
2023-04-16T20:22:44.409Z,101047.80
2023-04-16T20:25:14.029Z,101044.17
2023-04-16T20:27:42.264Z,101045.77
2023-04-16T20:30:13.017Z,101041.31
2023-04-16T20:32:41.488Z,101042.84
2023-04-16T20:35:11.053Z,101043.69
2023-04-16T20:37:41.481Z,101040.23
2023-04-16T20:40:14.365Z,101043.46
2023-04-16T20:42:45.514Z,101045.81
2023-04-16T20:45:14.115Z,101046.81
2023-04-16T20:47:43.330Z,101049.70
2023-04-16T20:50:13.003Z,101049.27
2023-04-16T20:52:42.066Z,101050.20
2023-04-16T20:55:10.770Z,101054.20
2023-04-16T20:57:39.107Z,101053.66
2023-04-16T21:00:13.589Z,101053.73
2023-04-16T21:02:42.157Z,101052.59
2023-04-16T21:05:14.019Z,101054.38
2023-04-16T21:07:42.456Z,101054.58
2023-04-16T21:10:11.750Z,101048.95
2023-04-16T21:12:40.109Z,101051.88
2023-04-16T21:15:09.935Z,101050.94
2023-04-16T21:17:38.539Z,101046.79
2023-04-16T21:20:12.875Z,101049.40
2023-04-16T21:22:41.256Z,101053.63
2023-04-16T21:25:10.865Z,101059.73
2023-04-16T21:27:39.223Z,101053.58
2023-04-16T21:30:10.199Z,101052.62
2023-04-16T21:32:38.920Z,101049.33
2023-04-16T21:35:10.582Z,101053.60
2023-04-16T21:37:38.892Z,101053.86
2023-04-16T21:40:09.024Z,101051.23
2023-04-16T21:42:39.339Z,101056.80
2023-04-16T21:45:09.795Z,101059.25
2023-04-16T21:47:38.448Z,101061.38
2023-04-16T21:50:09.062Z,101059.73
2023-04-16T21:52:39.780Z,101058.50
2023-04-16T21:55:09.798Z,101058.46
2023-04-16T21:57:38.093Z,101057.23
2023-04-16T22:00:12.970Z,101058.42
2023-04-16T22:02:42.083Z,101051.91
2023-04-16T22:05:11.032Z,101055.27
2023-04-16T22:07:39.416Z,101059.70
2023-04-16T22:10:10.003Z,101059.06
2023-04-16T22:12:39.007Z,101058.59
2023-04-16T22:15:09.698Z,101054.42
2023-04-16T22:17:38.762Z,101058.44
2023-04-16T22:20:12.214Z,101057.38
2023-04-16T22:22:41.169Z,101057.45
2023-04-16T22:25:10.271Z,101057.38
2023-04-16T22:27:38.682Z,101058.45
2023-04-16T22:30:09.150Z,101058.20
2023-04-16T22:32:37.741Z,101059.64
2023-04-16T22:35:07.641Z,101063.20
2023-04-16T22:37:36.313Z,101060.09
2023-04-16T22:40:10.962Z,101062.06
2023-04-16T22:42:39.307Z,101060.15
2023-04-16T22:45:09.176Z,101063.38
2023-04-16T22:47:37.618Z,101061.16
2023-04-16T22:50:08.357Z,101058.26
2023-04-16T22:52:36.805Z,101057.88
2023-04-16T22:55:06.884Z,101055.99
2023-04-16T22:57:35.194Z,101053.37
2023-04-16T23:00:06.210Z,101053.06
2023-04-16T23:02:34.597Z,101056.09
2023-04-16T23:05:04.391Z,101055.27
2023-04-16T23:07:32.718Z,101053.92
2023-04-16T23:10:01.023Z,101047.96
2023-04-16T23:12:29.243Z,101046.11
2023-04-16T23:14:57.821Z,101046.17
2023-04-16T23:17:26.574Z,101047.83
2023-04-16T23:19:54.960Z,101050.45
2023-04-16T23:22:23.378Z,101049.09
2023-04-16T23:24:52.269Z,101046.19
2023-04-16T23:27:20.585Z,101045.12
2023-04-16T23:29:48.921Z,101041.27
2023-04-16T23:32:17.341Z,101044.80
2023-04-16T23:34:45.712Z,101046.65
2023-04-16T23:37:14.003Z,101040.55
2023-04-16T23:39:42.469Z,101038.84
2023-04-16T23:42:10.825Z,101033.52
2023-04-16T23:44:39.116Z,101032.17
2023-04-16T23:47:07.735Z,101033.75
2023-04-16T23:49:36.651Z,101031.95
2023-04-16T23:52:05.482Z,101032.21
2023-04-16T23:54:33.839Z,101031.58
2023-04-16T23:57:02.141Z,101030.87
2023-04-16T23:59:30.497Z,101034.45
